Terminal Aerodrome Forecast
Issued by NWS Memphis, TN

Home | Current Version | Previous Version | Text Only | Print | Product List | Glossary On
Versions: 1 2 3 4 5 6 7 8 9 10 11 12 13
847
FTUS44 KMEG 220525
TAFMKL
TAF
KMKL 220525Z 2206/2306 11005KT P6SM VCSH SCT060 OVC100
     FM221200 10006KT P6SM -SHRA BKN025 OVC100
     FM221500 10008KT 6SM -SHRA BR BKN008 OVC020
     FM221900 09010G18KT 6SM SHRA BR VCTS BKN010CB OVC025
     FM230100 VRB03KT 3SM BR VCSH OVC008=

USA.gov is the U.S. government's official web portal to all federal, state and local government web resources and services.